Lunana, North Carolina
Current Conditions -  °F | °C
As of 1:35 PM on Saturday 20 Dec 2014 (Local Time) from KGWW Reporting Station
Overcast Overcast  
Wind Chill: 33°   Ceiling: 6000
Heat Index: 37°   Visibility: 10mi
Dew Point: 35°   Wind: 5mph
Humidity: 91%   Direction: 40°NE
Pressure: 30.26"   Gusts: NA
Location:  35.6422°N, 78.0265°W
Report Text: KGWW 201835Z AUTO 04004KT 10SM OVC060 03/01 A3026 RMK AO2 T00280014
Loading
Personal Weather Stations






























Interactive Weather Map New forecast layout! Learn more

10-Day Weather Forecast

Advertisements
Track Severe Weather on mobile